sensor_id;sensor_type;location;lat;lon;timestamp;temperature;humidity
6666;DHT22;3369;49.906;8.598;2023-06-24T00:01:15;16.60;94.30
6666;DHT22;3369;49.906;8.598;2023-06-24T00:03:41;16.50;94.30
6666;DHT22;3369;49.906;8.598;2023-06-24T00:06:12;16.40;94.40
6666;DHT22;3369;49.906;8.598;2023-06-24T00:08:49;16.40;94.50
6666;DHT22;3369;49.906;8.598;2023-06-24T00:11:15;16.40;94.60
6666;DHT22;3369;49.906;8.598;2023-06-24T00:13:42;16.40;94.70
6666;DHT22;3369;49.906;8.598;2023-06-24T00:16:08;16.30;94.80
6666;DHT22;3369;49.906;8.598;2023-06-24T00:18:34;16.40;94.90
6666;DHT22;3369;49.906;8.598;2023-06-24T00:21:01;16.30;95.20
6666;DHT22;3369;49.906;8.598;2023-06-24T00:23:30;16.40;95.20
6666;DHT22;3369;49.906;8.598;2023-06-24T00:26:00;16.40;95.30
6666;DHT22;3369;49.906;8.598;2023-06-24T00:28:26;16.40;95.40
6666;DHT22;3369;49.906;8.598;2023-06-24T00:30:52;16.40;95.40
6666;DHT22;3369;49.906;8.598;2023-06-24T00:33:18;16.40;95.40
6666;DHT22;3369;49.906;8.598;2023-06-24T00:35:47;16.40;95.40
6666;DHT22;3369;49.906;8.598;2023-06-24T00:38:13;16.30;95.50
6666;DHT22;3369;49.906;8.598;2023-06-24T00:40:39;16.20;95.60
6666;DHT22;3369;49.906;8.598;2023-06-24T00:43:06;16.10;95.70
6666;DHT22;3369;49.906;8.598;2023-06-24T00:45:32;16.00;95.80
6666;DHT22;3369;49.906;8.598;2023-06-24T00:48:01;15.90;95.90
6666;DHT22;3369;49.906;8.598;2023-06-24T00:50:28;15.80;96.00
6666;DHT22;3369;49.906;8.598;2023-06-24T00:52:54;15.80;96.20
6666;DHT22;3369;49.906;8.598;2023-06-24T00:55:20;15.80;96.30
6666;DHT22;3369;49.906;8.598;2023-06-24T00:57:49;15.80;96.30
6666;DHT22;3369;49.906;8.598;2023-06-24T01:00:19;15.80;96.50
6666;DHT22;3369;49.906;8.598;2023-06-24T01:02:47;15.70;96.50
6666;DHT22;3369;49.906;8.598;2023-06-24T01:05:13;15.70;96.60
6666;DHT22;3369;49.906;8.598;2023-06-24T01:07:40;15.70;96.70
6666;DHT22;3369;49.906;8.598;2023-06-24T01:33:50;15.20;97.60
6666;DHT22;3369;49.906;8.598;2023-06-24T01:36:17;15.20;97.90
6666;DHT22;3369;49.906;8.598;2023-06-24T01:38:51;15.20;97.90
6666;DHT22;3369;49.906;8.598;2023-06-24T01:41:22;15.20;98.00
6666;DHT22;3369;49.906;8.598;2023-06-24T01:43:48;15.10;98.10
6666;DHT22;3369;49.906;8.598;2023-06-24T01:46:16;15.10;98.30
6666;DHT22;3369;49.906;8.598;2023-06-24T01:48:46;15.00;98.40
6666;DHT22;3369;49.906;8.598;2023-06-24T01:51:15;15.00;98.50
6666;DHT22;3369;49.906;8.598;2023-06-24T01:53:46;15.00;98.60
6666;DHT22;3369;49.906;8.598;2023-06-24T01:56:15;14.90;98.70
6666;DHT22;3369;49.906;8.598;2023-06-24T01:58:43;14.90;98.80
6666;DHT22;3369;49.906;8.598;2023-06-24T02:01:09;14.90;99.00
6666;DHT22;3369;49.906;8.598;2023-06-24T02:03:35;14.90;99.10
6666;DHT22;3369;49.906;8.598;2023-06-24T02:06:02;14.90;99.20
6666;DHT22;3369;49.906;8.598;2023-06-24T02:08:33;14.80;99.20
6666;DHT22;3369;49.906;8.598;2023-06-24T02:11:00;14.80;99.20
6666;DHT22;3369;49.906;8.598;2023-06-24T02:13:27;14.80;99.30
6666;DHT22;3369;49.906;8.598;2023-06-24T02:15:54;14.80;99.40
6666;DHT22;3369;49.906;8.598;2023-06-24T02:18:21;14.70;99.40
6666;DHT22;3369;49.906;8.598;2023-06-24T02:20:49;14.70;99.50
6666;DHT22;3369;49.906;8.598;2023-06-24T02:23:16;14.60;99.50
6666;DHT22;3369;49.906;8.598;2023-06-24T02:25:42;14.60;99.70
6666;DHT22;3369;49.906;8.598;2023-06-24T02:28:09;14.50;99.80
6666;DHT22;3369;49.906;8.598;2023-06-24T02:30:37;14.50;99.90
6666;DHT22;3369;49.906;8.598;2023-06-24T02:33:03;14.50;99.90
6666;DHT22;3369;49.906;8.598;2023-06-24T02:35:29;14.50;99.90
6666;DHT22;3369;49.906;8.598;2023-06-24T02:37:55;14.50;99.90
6666;DHT22;3369;49.906;8.598;2023-06-24T02:40:20;14.60;99.90
6666;DHT22;3369;49.906;8.598;2023-06-24T02:42:46;14.60;99.90
6666;DHT22;3369;49.906;8.598;2023-06-24T02:45:12;14.50;99.90
6666;DHT22;3369;49.906;8.598;2023-06-24T02:47:40;14.50;99.90
6666;DHT22;3369;49.906;8.598;2023-06-24T02:50:08;14.40;99.90
6666;DHT22;3369;49.906;8.598;2023-06-24T02:52:34;14.50;99.90
6666;DHT22;3369;49.906;8.598;2023-06-24T02:55:02;14.50;99.90
6666;DHT22;3369;49.906;8.598;2023-06-24T02:57:28;14.60;99.90
6666;DHT22;3369;49.906;8.598;2023-06-24T02:59:55;14.60;99.90
6666;DHT22;3369;49.906;8.598;2023-06-24T03:02:20;14.60;99.90
6666;DHT22;3369;49.906;8.598;2023-06-24T03:04:48;14.60;99.90
6666;DHT22;3369;49.906;8.598;2023-06-24T03:07:15;14.60;99.90
6666;DHT22;3369;49.906;8.598;2023-06-24T03:09:46;14.60;99.90
6666;DHT22;3369;49.906;8.598;2023-06-24T03:12:11;14.60;99.90
6666;DHT22;3369;49.906;8.598;2023-06-24T03:14:37;14.70;99.90
6666;DHT22;3369;49.906;8.598;2023-06-24T03:17:03;14.70;99.90
6666;DHT22;3369;49.906;8.598;2023-06-24T03:19:29;14.70;99.90
6666;DHT22;3369;49.906;8.598;2023-06-24T03:21:55;14.60;99.90
6666;DHT22;3369;49.906;8.598;2023-06-24T03:24:20;14.50;99.90
6666;DHT22;3369;49.906;8.598;2023-06-24T03:26:46;14.40;99.90
6666;DHT22;3369;49.906;8.598;2023-06-24T03:29:12;14.40;99.90
6666;DHT22;3369;49.906;8.598;2023-06-24T03:31:38;14.30;99.90
6666;DHT22;3369;49.906;8.598;2023-06-24T03:34:10;14.30;99.90
6666;DHT22;3369;49.906;8.598;2023-06-24T03:36:35;14.30;99.90
6666;DHT22;3369;49.906;8.598;2023-06-24T03:39:04;14.30;99.90
6666;DHT22;3369;49.906;8.598;2023-06-24T03:41:30;14.30;99.90
6666;DHT22;3369;49.906;8.598;2023-06-24T03:43:55;14.30;99.90
6666;DHT22;3369;49.906;8.598;2023-06-24T03:46:21;14.30;99.90
6666;DHT22;3369;49.906;8.598;2023-06-24T03:48:49;14.30;99.90
6666;DHT22;3369;49.906;8.598;2023-06-24T03:51:15;14.30;99.90
6666;DHT22;3369;49.906;8.598;2023-06-24T03:53:40;14.40;99.90
6666;DHT22;3369;49.906;8.598;2023-06-24T03:56:06;14.40;99.90
6666;DHT22;3369;49.906;8.598;2023-06-24T03:58:31;14.40;99.90
6666;DHT22;3369;49.906;8.598;2023-06-24T04:00:59;14.40;99.90
6666;DHT22;3369;49.906;8.598;2023-06-24T04:03:26;14.40;99.90
6666;DHT22;3369;49.906;8.598;2023-06-24T04:05:53;14.40;99.90
6666;DHT22;3369;49.906;8.598;2023-06-24T04:08:20;14.40;99.90
6666;DHT22;3369;49.906;8.598;2023-06-24T04:10:45;14.50;99.90
6666;DHT22;3369;49.906;8.598;2023-06-24T04:13:11;14.50;99.90
6666;DHT22;3369;49.906;8.598;2023-06-24T04:15:36;14.50;99.90
6666;DHT22;3369;49.906;8.598;2023-06-24T04:18:02;14.60;99.90
6666;DHT22;3369;49.906;8.598;2023-06-24T04:20:28;14.60;99.90
6666;DHT22;3369;49.906;8.598;2023-06-24T04:22:53;14.70;99.90
6666;DHT22;3369;49.906;8.598;2023-06-24T04:25:19;14.70;99.90
6666;DHT22;3369;49.906;8.598;2023-06-24T04:27:45;14.80;99.90
6666;DHT22;3369;49.906;8.598;2023-06-24T04:30:10;14.80;99.90
6666;DHT22;3369;49.906;8.598;2023-06-24T04:32:37;14.90;99.90
6666;DHT22;3369;49.906;8.598;2023-06-24T04:35:02;14.90;99.90
6666;DHT22;3369;49.906;8.598;2023-06-24T04:37:29;14.90;99.90
6666;DHT22;3369;49.906;8.598;2023-06-24T04:39:55;15.00;99.90
6666;DHT22;3369;49.906;8.598;2023-06-24T04:42:21;15.00;99.90
6666;DHT22;3369;49.906;8.598;2023-06-24T04:44:48;15.10;99.90
6666;DHT22;3369;49.906;8.598;2023-06-24T04:47:16;15.20;99.90
6666;DHT22;3369;49.906;8.598;2023-06-24T04:49:43;15.30;99.90
6666;DHT22;3369;49.906;8.598;2023-06-24T04:52:08;15.30;99.90
6666;DHT22;3369;49.906;8.598;2023-06-24T04:54:35;15.40;99.90
6666;DHT22;3369;49.906;8.598;2023-06-24T04:57:01;15.50;99.90
6666;DHT22;3369;49.906;8.598;2023-06-24T04:59:27;15.50;99.90
6666;DHT22;3369;49.906;8.598;2023-06-24T05:01:52;15.60;99.90
6666;DHT22;3369;49.906;8.598;2023-06-24T05:04:18;15.70;99.90
6666;DHT22;3369;49.906;8.598;2023-06-24T05:06:43;15.80;99.90
6666;DHT22;3369;49.906;8.598;2023-06-24T05:09:09;15.80;99.90
6666;DHT22;3369;49.906;8.598;2023-06-24T05:11:39;15.90;99.90
6666;DHT22;3369;49.906;8.598;2023-06-24T05:14:05;16.00;99.90
6666;DHT22;3369;49.906;8.598;2023-06-24T05:16:30;16.00;99.90
6666;DHT22;3369;49.906;8.598;2023-06-24T05:18:56;16.10;99.90
6666;DHT22;3369;49.906;8.598;2023-06-24T05:21:21;16.10;99.90
6666;DHT22;3369;49.906;8.598;2023-06-24T05:23:47;16.20;99.90
6666;DHT22;3369;49.906;8.598;2023-06-24T05:26:13;16.30;99.90
6666;DHT22;3369;49.906;8.598;2023-06-24T05:28:38;16.30;99.90
6666;DHT22;3369;49.906;8.598;2023-06-24T05:31:04;16.40;99.90
6666;DHT22;3369;49.906;8.598;2023-06-24T05:33:29;16.40;99.90
6666;DHT22;3369;49.906;8.598;2023-06-24T05:35:56;16.50;99.90
6666;DHT22;3369;49.906;8.598;2023-06-24T05:38:21;16.60;99.90
6666;DHT22;3369;49.906;8.598;2023-06-24T05:40:47;16.70;99.90
6666;DHT22;3369;49.906;8.598;2023-06-24T05:43:13;16.80;99.90
6666;DHT22;3369;49.906;8.598;2023-06-24T05:45:38;16.90;99.90
6666;DHT22;3369;49.906;8.598;2023-06-24T05:48:04;17.00;99.90
6666;DHT22;3369;49.906;8.598;2023-06-24T05:50:30;17.10;99.90
6666;DHT22;3369;49.906;8.598;2023-06-24T05:52:55;17.20;99.90
6666;DHT22;3369;49.906;8.598;2023-06-24T05:55:21;17.30;99.90
6666;DHT22;3369;49.906;8.598;2023-06-24T05:57:47;17.50;99.90
6666;DHT22;3369;49.906;8.598;2023-06-24T06:00:12;17.70;99.90
6666;DHT22;3369;49.906;8.598;2023-06-24T06:02:38;18.00;99.90
6666;DHT22;3369;49.906;8.598;2023-06-24T06:05:04;18.40;99.90
6666;DHT22;3369;49.906;8.598;2023-06-24T06:07:30;18.80;99.90
6666;DHT22;3369;49.906;8.598;2023-06-24T06:09:55;19.10;99.90
6666;DHT22;3369;49.906;8.598;2023-06-24T06:12:21;19.40;99.90
6666;DHT22;3369;49.906;8.598;2023-06-24T06:14:47;19.80;99.90
6666;DHT22;3369;49.906;8.598;2023-06-24T06:17:14;20.10;99.90
6666;DHT22;3369;49.906;8.598;2023-06-24T06:19:39;20.30;99.90
6666;DHT22;3369;49.906;8.598;2023-06-24T06:22:07;20.50;99.90
6666;DHT22;3369;49.906;8.598;2023-06-24T06:24:33;20.80;99.90
6666;DHT22;3369;49.906;8.598;2023-06-24T06:26:59;21.00;99.90
6666;DHT22;3369;49.906;8.598;2023-06-24T06:29:25;21.20;99.90
6666;DHT22;3369;49.906;8.598;2023-06-24T06:31:50;21.30;99.40
6666;DHT22;3369;49.906;8.598;2023-06-24T06:34:18;21.40;98.40
6666;DHT22;3369;49.906;8.598;2023-06-24T06:36:43;21.50;97.80
6666;DHT22;3369;49.906;8.598;2023-06-24T06:39:09;21.60;97.80
6666;DHT22;3369;49.906;8.598;2023-06-24T06:41:35;21.80;97.70
6666;DHT22;3369;49.906;8.598;2023-06-24T06:44:00;21.90;96.90
6666;DHT22;3369;49.906;8.598;2023-06-24T06:46:26;22.00;96.90
6666;DHT22;3369;49.906;8.598;2023-06-24T06:48:51;22.10;96.50
6666;DHT22;3369;49.906;8.598;2023-06-24T06:51:17;22.10;95.30
6666;DHT22;3369;49.906;8.598;2023-06-24T07:13:48;22.40;94.30
6666;DHT22;3369;49.906;8.598;2023-06-24T07:16:16;22.50;94.50
6666;DHT22;3369;49.906;8.598;2023-06-24T07:18:42;22.60;94.40
6666;DHT22;3369;49.906;8.598;2023-06-24T07:21:07;22.70;94.30
6666;DHT22;3369;49.906;8.598;2023-06-24T07:23:33;22.70;93.50
6666;DHT22;3369;49.906;8.598;2023-06-24T07:25:59;22.80;93.50
6666;DHT22;3369;49.906;8.598;2023-06-24T07:28:24;22.90;93.40
6666;DHT22;3369;49.906;8.598;2023-06-24T07:30:50;23.00;93.20
6666;DHT22;3369;49.906;8.598;2023-06-24T07:33:16;23.10;93.30
6666;DHT22;3369;49.906;8.598;2023-06-24T07:35:42;23.20;93.20
6666;DHT22;3369;49.906;8.598;2023-06-24T07:38:07;23.30;93.20
6666;DHT22;3369;49.906;8.598;2023-06-24T07:40:33;23.30;93.00
6666;DHT22;3369;49.906;8.598;2023-06-24T07:42:59;23.40;92.90
6666;DHT22;3369;49.906;8.598;2023-06-24T07:45:24;23.50;92.80
6666;DHT22;3369;49.906;8.598;2023-06-24T07:47:51;23.60;92.70
6666;DHT22;3369;49.906;8.598;2023-06-24T07:50:16;23.70;92.70
6666;DHT22;3369;49.906;8.598;2023-06-24T07:52:42;23.80;92.60
6666;DHT22;3369;49.906;8.598;2023-06-24T07:55:08;23.90;92.40
6666;DHT22;3369;49.906;8.598;2023-06-24T07:57:33;24.00;92.20
6666;DHT22;3369;49.906;8.598;2023-06-24T07:59:59;24.00;91.90
6666;DHT22;3369;49.906;8.598;2023-06-24T08:02:24;24.10;91.90
6666;DHT22;3369;49.906;8.598;2023-06-24T08:04:51;24.20;91.90
6666;DHT22;3369;49.906;8.598;2023-06-24T08:07:17;24.20;91.40
6666;DHT22;3369;49.906;8.598;2023-06-24T08:09:43;24.20;91.30
6666;DHT22;3369;49.906;8.598;2023-06-24T08:12:09;24.40;91.50
6666;DHT22;3369;49.906;8.598;2023-06-24T08:14:34;24.50;91.20
6666;DHT22;3369;49.906;8.598;2023-06-24T08:17:01;24.60;91.10
6666;DHT22;3369;49.906;8.598;2023-06-24T08:19:26;24.70;91.00
6666;DHT22;3369;49.906;8.598;2023-06-24T08:21:52;24.70;90.40
6666;DHT22;3369;49.906;8.598;2023-06-24T08:24:17;24.70;90.70
6666;DHT22;3369;49.906;8.598;2023-06-24T08:26:43;24.80;90.10
6666;DHT22;3369;49.906;8.598;2023-06-24T08:29:09;24.80;90.70
6666;DHT22;3369;49.906;8.598;2023-06-24T08:31:34;24.90;91.20
6666;DHT22;3369;49.906;8.598;2023-06-24T08:34:00;25.10;90.90
6666;DHT22;3369;49.906;8.598;2023-06-24T08:36:28;25.20;90.30
6666;DHT22;3369;49.906;8.598;2023-06-24T08:38:54;25.30;90.30
6666;DHT22;3369;49.906;8.598;2023-06-24T08:41:20;25.40;90.10
6666;DHT22;3369;49.906;8.598;2023-06-24T08:43:47;25.60;89.90
6666;DHT22;3369;49.906;8.598;2023-06-24T08:46:15;25.70;89.60
6666;DHT22;3369;49.906;8.598;2023-06-24T08:48:42;25.80;88.50
6666;DHT22;3369;49.906;8.598;2023-06-24T08:51:09;25.80;87.10
6666;DHT22;3369;49.906;8.598;2023-06-24T08:53:38;25.90;87.40
6666;DHT22;3369;49.906;8.598;2023-06-24T08:56:07;26.00;86.70
6666;DHT22;3369;49.906;8.598;2023-06-24T08:58:33;26.10;87.00
6666;DHT22;3369;49.906;8.598;2023-06-24T09:01:00;26.20;85.30
6666;DHT22;3369;49.906;8.598;2023-06-24T09:03:26;26.30;83.60
6666;DHT22;3369;49.906;8.598;2023-06-24T09:05:51;26.40;84.40
6666;DHT22;3369;49.906;8.598;2023-06-24T09:08:17;26.60;84.30
6666;DHT22;3369;49.906;8.598;2023-06-24T09:10:43;26.60;83.80
6666;DHT22;3369;49.906;8.598;2023-06-24T09:13:09;26.70;82.00
6666;DHT22;3369;49.906;8.598;2023-06-24T09:15:37;26.60;81.40
6666;DHT22;3369;49.906;8.598;2023-06-24T09:18:04;26.60;82.30
6666;DHT22;3369;49.906;8.598;2023-06-24T09:20:31;26.60;80.90
6666;DHT22;3369;49.906;8.598;2023-06-24T09:23:02;26.70;81.70
6666;DHT22;3369;49.906;8.598;2023-06-24T09:25:28;26.70;81.20
6666;DHT22;3369;49.906;8.598;2023-06-24T09:27:54;26.80;80.30
6666;DHT22;3369;49.906;8.598;2023-06-24T09:30:22;26.90;81.60
6666;DHT22;3369;49.906;8.598;2023-06-24T09:32:49;27.00;80.20
6666;DHT22;3369;49.906;8.598;2023-06-24T09:35:18;27.00;78.10
6666;DHT22;3369;49.906;8.598;2023-06-24T09:37:51;27.00;77.80
6666;DHT22;3369;49.906;8.598;2023-06-24T09:40:18;27.10;77.10
6666;DHT22;3369;49.906;8.598;2023-06-24T09:43:02;27.20;76.80
6666;DHT22;3369;49.906;8.598;2023-06-24T09:45:29;27.20;77.50
6666;DHT22;3369;49.906;8.598;2023-06-24T09:47:56;27.30;78.10
6666;DHT22;3369;49.906;8.598;2023-06-24T09:50:23;27.30;78.00
6666;DHT22;3369;49.906;8.598;2023-06-24T09:52:50;27.40;77.10
6666;DHT22;3369;49.906;8.598;2023-06-24T09:55:17;27.50;77.90
6666;DHT22;3369;49.906;8.598;2023-06-24T09:57:50;27.50;76.00
6666;DHT22;3369;49.906;8.598;2023-06-24T10:00:19;27.50;76.40
6666;DHT22;3369;49.906;8.598;2023-06-24T10:02:45;27.50;77.30
6666;DHT22;3369;49.906;8.598;2023-06-24T10:05:15;27.60;77.60
6666;DHT22;3369;49.906;8.598;2023-06-24T10:07:41;27.80;77.90
6666;DHT22;3369;49.906;8.598;2023-06-24T10:10:08;27.90;77.50
6666;DHT22;3369;49.906;8.598;2023-06-24T10:12:35;28.00;77.40
6666;DHT22;3369;49.906;8.598;2023-06-24T10:15:01;28.00;76.10
6666;DHT22;3369;49.906;8.598;2023-06-24T10:17:27;28.00;77.40
6666;DHT22;3369;49.906;8.598;2023-06-24T10:19:53;28.00;76.30
6666;DHT22;3369;49.906;8.598;2023-06-24T10:22:25;28.00;77.40
6666;DHT22;3369;49.906;8.598;2023-06-24T10:24:52;28.20;77.40
6666;DHT22;3369;49.906;8.598;2023-06-24T10:27:19;28.30;77.20
6666;DHT22;3369;49.906;8.598;2023-06-24T10:29:50;28.40;75.30
6666;DHT22;3369;49.906;8.598;2023-06-24T10:32:17;28.40;73.50
6666;DHT22;3369;49.906;8.598;2023-06-24T10:34:45;28.40;73.70
6666;DHT22;3369;49.906;8.598;2023-06-24T10:39:53;28.40;73.00
6666;DHT22;3369;49.906;8.598;2023-06-24T10:45:13;28.50;72.70
6666;DHT22;3369;49.906;8.598;2023-06-24T10:47:41;28.50;72.20
6666;DHT22;3369;49.906;8.598;2023-06-24T10:50:12;28.60;72.20
6666;DHT22;3369;49.906;8.598;2023-06-24T10:52:45;28.60;71.70
6666;DHT22;3369;49.906;8.598;2023-06-24T10:55:17;28.60;71.20
6666;DHT22;3369;49.906;8.598;2023-06-24T10:57:43;28.70;72.50
6666;DHT22;3369;49.906;8.598;2023-06-24T11:00:10;28.80;70.10
6666;DHT22;3369;49.906;8.598;2023-06-24T11:02:36;29.00;70.30
6666;DHT22;3369;49.906;8.598;2023-06-24T11:05:02;29.10;70.60
6666;DHT22;3369;49.906;8.598;2023-06-24T11:07:30;29.20;70.50
6666;DHT22;3369;49.906;8.598;2023-06-24T11:10:15;29.20;69.90
6666;DHT22;3369;49.906;8.598;2023-06-24T11:12:42;29.00;69.80
6666;DHT22;3369;49.906;8.598;2023-06-24T11:15:10;28.80;69.30
6666;DHT22;3369;49.906;8.598;2023-06-24T11:17:36;28.70;69.90
6666;DHT22;3369;49.906;8.598;2023-06-24T11:20:10;28.80;70.50
6666;DHT22;3369;49.906;8.598;2023-06-24T11:22:37;28.80;70.30
6666;DHT22;3369;49.906;8.598;2023-06-24T11:25:03;28.70;68.90
6666;DHT22;3369;49.906;8.598;2023-06-24T11:27:30;28.50;69.70
6666;DHT22;3369;49.906;8.598;2023-06-24T11:29:58;28.40;70.10
6666;DHT22;3369;49.906;8.598;2023-06-24T11:32:35;28.30;69.80
6666;DHT22;3369;49.906;8.598;2023-06-24T11:35:02;28.30;70.20
6666;DHT22;3369;49.906;8.598;2023-06-24T11:37:31;28.40;68.20
6666;DHT22;3369;49.906;8.598;2023-06-24T11:40:07;28.40;66.30
6666;DHT22;3369;49.906;8.598;2023-06-24T11:42:38;28.40;66.90
6666;DHT22;3369;49.906;8.598;2023-06-24T11:45:07;28.50;67.30
6666;DHT22;3369;49.906;8.598;2023-06-24T11:47:38;28.60;66.30
6666;DHT22;3369;49.906;8.598;2023-06-24T11:50:08;28.60;66.10
6666;DHT22;3369;49.906;8.598;2023-06-24T11:52:42;28.70;66.30
6666;DHT22;3369;49.906;8.598;2023-06-24T11:55:19;28.90;67.90
6666;DHT22;3369;49.906;8.598;2023-06-24T12:00:15;29.20;65.60
6666;DHT22;3369;49.906;8.598;2023-06-24T12:02:41;29.40;65.60
6666;DHT22;3369;49.906;8.598;2023-06-24T12:05:07;29.50;64.20
6666;DHT22;3369;49.906;8.598;2023-06-24T12:07:33;29.60;63.20
6666;DHT22;3369;49.906;8.598;2023-06-24T12:09:59;29.70;62.80
6666;DHT22;3369;49.906;8.598;2023-06-24T12:12:25;29.80;62.40
6666;DHT22;3369;49.906;8.598;2023-06-24T12:14:50;29.80;61.80
6666;DHT22;3369;49.906;8.598;2023-06-24T12:17:16;29.80;62.20
6666;DHT22;3369;49.906;8.598;2023-06-24T12:19:41;29.80;61.50
6666;DHT22;3369;49.906;8.598;2023-06-24T12:22:07;29.80;62.40
6666;DHT22;3369;49.906;8.598;2023-06-24T12:24:33;29.90;61.70
6666;DHT22;3369;49.906;8.598;2023-06-24T12:26:59;30.00;62.90
6666;DHT22;3369;49.906;8.598;2023-06-24T12:29:25;30.00;61.80
6666;DHT22;3369;49.906;8.598;2023-06-24T12:31:51;30.00;60.60
6666;DHT22;3369;49.906;8.598;2023-06-24T12:34:16;29.90;61.00
6666;DHT22;3369;49.906;8.598;2023-06-24T12:36:42;29.80;61.10
6666;DHT22;3369;49.906;8.598;2023-06-24T12:39:07;29.70;60.40
6666;DHT22;3369;49.906;8.598;2023-06-24T12:41:33;29.70;60.50
6666;DHT22;3369;49.906;8.598;2023-06-24T12:43:59;29.80;61.40
6666;DHT22;3369;49.906;8.598;2023-06-24T12:46:24;30.00;61.50
6666;DHT22;3369;49.906;8.598;2023-06-24T12:48:50;30.20;62.10
6666;DHT22;3369;49.906;8.598;2023-06-24T12:51:15;30.30;61.30
6666;DHT22;3369;49.906;8.598;2023-06-24T12:53:41;30.30;60.50
6666;DHT22;3369;49.906;8.598;2023-06-24T12:56:06;30.20;58.60
6666;DHT22;3369;49.906;8.598;2023-06-24T12:58:34;30.00;59.40
6666;DHT22;3369;49.906;8.598;2023-06-24T13:00:59;30.00;59.70
6666;DHT22;3369;49.906;8.598;2023-06-24T13:03:25;30.00;59.90
6666;DHT22;3369;49.906;8.598;2023-06-24T13:05:50;30.00;58.90
6666;DHT22;3369;49.906;8.598;2023-06-24T13:08:16;30.00;59.50
6666;DHT22;3369;49.906;8.598;2023-06-24T13:30:48;29.00;61.70
6666;DHT22;3369;49.906;8.598;2023-06-24T13:33:15;29.20;60.60
6666;DHT22;3369;49.906;8.598;2023-06-24T13:35:41;29.30;59.60
6666;DHT22;3369;49.906;8.598;2023-06-24T13:38:06;29.50;60.20
6666;DHT22;3369;49.906;8.598;2023-06-24T13:40:33;29.60;59.10
6666;DHT22;3369;49.906;8.598;2023-06-24T13:42:59;29.70;58.80
6666;DHT22;3369;49.906;8.598;2023-06-24T13:45:25;29.80;58.90
6666;DHT22;3369;49.906;8.598;2023-06-24T13:47:50;29.90;57.80
6666;DHT22;3369;49.906;8.598;2023-06-24T13:50:16;30.00;58.60
6666;DHT22;3369;49.906;8.598;2023-06-24T13:52:41;30.10;58.90
6666;DHT22;3369;49.906;8.598;2023-06-24T13:55:08;30.20;58.90
6666;DHT22;3369;49.906;8.598;2023-06-24T13:57:33;30.30;59.20
6666;DHT22;3369;49.906;8.598;2023-06-24T13:59:59;30.50;59.30
6666;DHT22;3369;49.906;8.598;2023-06-24T14:02:24;30.60;59.30
6666;DHT22;3369;49.906;8.598;2023-06-24T14:04:50;30.70;59.40
6666;DHT22;3369;49.906;8.598;2023-06-24T14:07:16;30.70;58.40
6666;DHT22;3369;49.906;8.598;2023-06-24T14:09:42;30.70;58.30
6666;DHT22;3369;49.906;8.598;2023-06-24T14:12:08;30.70;58.20
6666;DHT22;3369;49.906;8.598;2023-06-24T14:14:35;30.60;58.30
6666;DHT22;3369;49.906;8.598;2023-06-24T14:17:02;30.40;58.70
6666;DHT22;3369;49.906;8.598;2023-06-24T14:19:28;30.30;59.00
6666;DHT22;3369;49.906;8.598;2023-06-24T14:21:54;30.10;59.10
6666;DHT22;3369;49.906;8.598;2023-06-24T14:24:19;30.00;59.50
6666;DHT22;3369;49.906;8.598;2023-06-24T14:26:45;29.80;59.80
6666;DHT22;3369;49.906;8.598;2023-06-24T14:29:14;29.60;60.00
6666;DHT22;3369;49.906;8.598;2023-06-24T14:31:40;29.50;60.10
6666;DHT22;3369;49.906;8.598;2023-06-24T14:34:06;29.30;59.80
6666;DHT22;3369;49.906;8.598;2023-06-24T14:36:31;29.20;60.10
6666;DHT22;3369;49.906;8.598;2023-06-24T14:38:57;29.10;60.40
6666;DHT22;3369;49.906;8.598;2023-06-24T14:41:23;29.00;60.70
6666;DHT22;3369;49.906;8.598;2023-06-24T14:43:49;29.10;60.70
6666;DHT22;3369;49.906;8.598;2023-06-24T14:46:14;29.20;60.10
6666;DHT22;3369;49.906;8.598;2023-06-24T14:48:40;29.30;59.10
6666;DHT22;3369;49.906;8.598;2023-06-24T14:51:06;29.30;58.20
6666;DHT22;3369;49.906;8.598;2023-06-24T14:53:32;29.30;58.50
6666;DHT22;3369;49.906;8.598;2023-06-24T14:55:57;29.20;58.40
6666;DHT22;3369;49.906;8.598;2023-06-24T14:58:23;29.20;58.50
6666;DHT22;3369;49.906;8.598;2023-06-24T15:00:49;29.20;57.90
6666;DHT22;3369;49.906;8.598;2023-06-24T15:03:14;29.10;57.90
6666;DHT22;3369;49.906;8.598;2023-06-24T15:05:40;29.00;58.20
6666;DHT22;3369;49.906;8.598;2023-06-24T15:08:05;29.00;58.50
6666;DHT22;3369;49.906;8.598;2023-06-24T15:10:32;28.90;58.80
6666;DHT22;3369;49.906;8.598;2023-06-24T15:12:57;29.00;59.10
6666;DHT22;3369;49.906;8.598;2023-06-24T15:15:23;29.00;59.30
6666;DHT22;3369;49.906;8.598;2023-06-24T15:17:49;29.00;59.40
6666;DHT22;3369;49.906;8.598;2023-06-24T15:20:14;29.10;59.60
6666;DHT22;3369;49.906;8.598;2023-06-24T15:22:41;29.10;59.40
6666;DHT22;3369;49.906;8.598;2023-06-24T15:25:07;29.10;59.50
6666;DHT22;3369;49.906;8.598;2023-06-24T15:27:33;29.20;59.60
6666;DHT22;3369;49.906;8.598;2023-06-24T15:29:59;29.20;59.60
6666;DHT22;3369;49.906;8.598;2023-06-24T15:32:24;29.20;59.70
6666;DHT22;3369;49.906;8.598;2023-06-24T15:34:50;29.20;59.70
6666;DHT22;3369;49.906;8.598;2023-06-24T15:37:16;29.20;58.90
6666;DHT22;3369;49.906;8.598;2023-06-24T15:39:41;29.20;58.50
6666;DHT22;3369;49.906;8.598;2023-06-24T15:42:07;29.20;58.90
6666;DHT22;3369;49.906;8.598;2023-06-24T15:44:33;29.20;59.20
6666;DHT22;3369;49.906;8.598;2023-06-24T15:46:59;29.20;59.20
6666;DHT22;3369;49.906;8.598;2023-06-24T15:49:25;29.10;59.30
6666;DHT22;3369;49.906;8.598;2023-06-24T15:51:50;29.10;59.00
6666;DHT22;3369;49.906;8.598;2023-06-24T15:54:16;29.00;59.20
6666;DHT22;3369;49.906;8.598;2023-06-24T15:56:42;28.90;59.10
6666;DHT22;3369;49.906;8.598;2023-06-24T15:59:07;28.80;59.00
6666;DHT22;3369;49.906;8.598;2023-06-24T16:01:33;28.80;58.10
6666;DHT22;3369;49.906;8.598;2023-06-24T16:03:58;28.70;58.10
6666;DHT22;3369;49.906;8.598;2023-06-24T16:06:24;28.70;58.30
6666;DHT22;3369;49.906;8.598;2023-06-24T16:08:50;28.60;58.20
6666;DHT22;3369;49.906;8.598;2023-06-24T16:11:16;28.60;57.50
6666;DHT22;3369;49.906;8.598;2023-06-24T16:13:42;28.60;57.30
6666;DHT22;3369;49.906;8.598;2023-06-24T16:16:07;28.50;57.20
6666;DHT22;3369;49.906;8.598;2023-06-24T16:18:33;28.40;57.50
6666;DHT22;3369;49.906;8.598;2023-06-24T16:20:58;28.40;57.70
6666;DHT22;3369;49.906;8.598;2023-06-24T16:23:24;28.40;58.00
6666;DHT22;3369;49.906;8.598;2023-06-24T16:25:50;28.40;58.30
6666;DHT22;3369;49.906;8.598;2023-06-24T16:28:16;28.30;58.10
6666;DHT22;3369;49.906;8.598;2023-06-24T16:30:42;28.30;58.20
6666;DHT22;3369;49.906;8.598;2023-06-24T16:33:07;28.30;58.40
6666;DHT22;3369;49.906;8.598;2023-06-24T16:35:33;28.30;58.50
6666;DHT22;3369;49.906;8.598;2023-06-24T16:37:58;28.30;58.00
6666;DHT22;3369;49.906;8.598;2023-06-24T16:40:24;28.20;57.60
6666;DHT22;3369;49.906;8.598;2023-06-24T16:42:49;28.20;57.90
6666;DHT22;3369;49.906;8.598;2023-06-24T16:45:15;28.20;58.20
6666;DHT22;3369;49.906;8.598;2023-06-24T16:47:41;28.10;58.20
6666;DHT22;3369;49.906;8.598;2023-06-24T16:50:07;28.10;58.30
6666;DHT22;3369;49.906;8.598;2023-06-24T16:52:32;28.00;58.50
6666;DHT22;3369;49.906;8.598;2023-06-24T16:54:58;27.90;58.80
6666;DHT22;3369;49.906;8.598;2023-06-24T16:57:27;27.90;59.20
6666;DHT22;3369;49.906;8.598;2023-06-24T16:59:53;27.80;59.40
6666;DHT22;3369;49.906;8.598;2023-06-24T17:02:18;27.80;59.50
6666;DHT22;3369;49.906;8.598;2023-06-24T17:04:44;27.80;59.60
6666;DHT22;3369;49.906;8.598;2023-06-24T17:07:10;27.90;59.80
6666;DHT22;3369;49.906;8.598;2023-06-24T17:09:35;27.90;59.70